45VA weather

CLOSED Frog Hollow Farm Airport
West Point, Virginia, United States

Public forecast

Using degrees Fahrenheit for public forecast. Weather courtesy of forecast.io.

Closest aviation weather report (METAR) to Frog Hollow Farm Airport

Closest report is Tappahannock-Essex County Airport, 11.0 nm (20.3 km) NNE. Retrieved 2019/10/21 03:35 UTC (0 seconds ago):

KXSA 210335Z AUTO 32009G14KT 10SM OVC009 14/14 A2994 RMK AO2 T01380138

Closest aviation forecast (TAF) to Frog Hollow Farm Airport

Closest forecast is Richmond International Airport, 19.2 nm (35.6 km) SW. Retrieved 2019-10-21 00:30 UTC (3 hours ago):

TAF KRIC 202327Z 2100/2124 35010G17KT 5SM -DZ BR OVC006 FM210400 35007KT P6SM OVC008 FM210900 35004KT 4SM BR OVC008 FM211300 35004KT P6SM BKN030 FM211800 02004KT P6SM BKN040